sensor_id;sensor_type;location;lat;lon;timestamp;pressure;altitude;pressure_sealevel;temperature;humidity
24013;BME280;12220;50.194;18.948;2023-06-04T00:00:03;102293.45;;;11.66;46.88
24013;BME280;12220;50.194;18.948;2023-06-04T00:02:10;102296.50;;;11.60;46.96
24013;BME280;12220;50.194;18.948;2023-06-04T00:04:11;102301.47;;;11.51;47.13
24013;BME280;12220;50.194;18.948;2023-06-04T00:06:13;102296.29;;;11.45;47.33
24013;BME280;12220;50.194;18.948;2023-06-04T00:08:14;102284.68;;;11.40;47.47
24013;BME280;12220;50.194;18.948;2023-06-04T00:10:24;102300.30;;;11.38;47.57
24013;BME280;12220;50.194;18.948;2023-06-04T00:12:26;102286.66;;;11.37;47.72
24013;BME280;12220;50.194;18.948;2023-06-04T00:14:27;102285.71;;;11.38;47.90
24013;BME280;12220;50.194;18.948;2023-06-04T00:16:28;102281.03;;;11.40;47.93
24013;BME280;12220;50.194;18.948;2023-06-04T00:18:39;102287.41;;;11.40;47.95
24013;BME280;12220;50.194;18.948;2023-06-04T00:20:44;102280.06;;;11.41;47.99
24013;BME280;12220;50.194;18.948;2023-06-04T00:22:45;102274.59;;;11.41;48.12
24013;BME280;12220;50.194;18.948;2023-06-04T00:24:47;102274.42;;;11.44;48.16
24013;BME280;12220;50.194;18.948;2023-06-04T00:26:54;102280.79;;;11.44;48.14
24013;BME280;12220;50.194;18.948;2023-06-04T00:30:43;102274.50;;;11.42;48.17
24013;BME280;12220;50.194;18.948;2023-06-04T00:32:44;102271.84;;;11.41;48.30
24013;BME280;12220;50.194;18.948;2023-06-04T00:34:51;102278.36;;;11.38;48.38
24013;BME280;12220;50.194;18.948;2023-06-04T00:36:58;102270.20;;;11.37;48.43
24013;BME280;12220;50.194;18.948;2023-06-04T00:39:02;102269.40;;;11.34;48.52
24013;BME280;12220;50.194;18.948;2023-06-04T00:41:04;102274.05;;;11.32;48.62
24013;BME280;12220;50.194;18.948;2023-06-04T00:43:08;102275.04;;;11.31;48.66
24013;BME280;12220;50.194;18.948;2023-06-04T00:45:13;102268.72;;;11.29;48.67
24013;BME280;12220;50.194;18.948;2023-06-04T00:47:20;102273.40;;;11.27;48.74
24013;BME280;12220;50.194;18.948;2023-06-04T00:49:22;102279.92;;;11.25;48.78
24013;BME280;12220;50.194;18.948;2023-06-04T00:51:23;102271.85;;;11.22;48.87
24013;BME280;12220;50.194;18.948;2023-06-04T00:53:28;102269.27;;;11.19;48.90
24013;BME280;12220;50.194;18.948;2023-06-04T00:55:30;102260.20;;;11.16;49.00
24013;BME280;12220;50.194;18.948;2023-06-04T00:57:33;102261.20;;;11.15;49.11
24013;BME280;12220;50.194;18.948;2023-06-04T00:59:37;102258.45;;;11.15;49.18
24013;BME280;12220;50.194;18.948;2023-06-04T01:04:09;102263.10;;;11.13;49.22
24013;BME280;12220;50.194;18.948;2023-06-04T01:06:22;102255.98;;;11.09;49.31
24013;BME280;12220;50.194;18.948;2023-06-04T01:08:27;102254.22;;;11.08;49.43
24013;BME280;12220;50.194;18.948;2023-06-04T01:10:28;102253.23;;;11.09;49.54
24013;BME280;12220;50.194;18.948;2023-06-04T01:12:32;102254.15;;;11.10;49.51
24013;BME280;12220;50.194;18.948;2023-06-04T01:14:33;102251.33;;;11.11;49.57
24013;BME280;12220;50.194;18.948;2023-06-04T01:16:47;102247.75;;;11.09;49.60
24013;BME280;12220;50.194;18.948;2023-06-04T01:18:43;102247.83;;;11.08;49.72
24013;BME280;12220;50.194;18.948;2023-06-04T01:20:50;102248.81;;;11.07;49.73
24013;BME280;12220;50.194;18.948;2023-06-04T01:25:12;102260.80;;;11.04;49.85
24013;BME280;12220;50.194;18.948;2023-06-04T01:27:20;102283.77;;;11.02;49.88
24013;BME280;12220;50.194;18.948;2023-06-04T01:29:22;102263.85;;;10.98;49.98
24013;BME280;12220;50.194;18.948;2023-06-04T01:31:31;102262.21;;;10.94;50.02
24013;BME280;12220;50.194;18.948;2023-06-04T01:33:36;102247.82;;;10.89;50.14
24013;BME280;12220;50.194;18.948;2023-06-04T01:35:39;102251.52;;;10.88;50.24
24013;BME280;12220;50.194;18.948;2023-06-04T01:37:40;102257.07;;;10.86;50.40
24013;BME280;12220;50.194;18.948;2023-06-04T01:39:46;102258.05;;;10.85;50.44
24013;BME280;12220;50.194;18.948;2023-06-04T01:41:47;102251.52;;;10.88;50.57
24013;BME280;12220;50.194;18.948;2023-06-04T01:43:49;102256.04;;;10.89;50.59
24013;BME280;12220;50.194;18.948;2023-06-04T01:45:53;102256.95;;;10.89;50.67
24013;BME280;12220;50.194;18.948;2023-06-04T01:48:03;102255.09;;;10.90;50.63
24013;BME280;12220;50.194;18.948;2023-06-04T01:50:06;102259.70;;;10.89;50.71
24013;BME280;12220;50.194;18.948;2023-06-04T01:52:10;102256.95;;;10.89;50.81
24013;BME280;12220;50.194;18.948;2023-06-04T01:54:12;102253.15;;;10.92;50.86
24013;BME280;12220;50.194;18.948;2023-06-04T01:56:16;102257.68;;;10.93;50.87
24013;BME280;12220;50.194;18.948;2023-06-04T01:58:18;102253.08;;;10.93;50.94
24013;BME280;12220;50.194;18.948;2023-06-04T02:00:27;102252.92;;;10.96;51.02
24013;BME280;12220;50.194;18.948;2023-06-04T02:02:28;102255.63;;;10.98;51.01
24013;BME280;12220;50.194;18.948;2023-06-04T02:04:33;102254.80;;;10.96;50.97
24013;BME280;12220;50.194;18.948;2023-06-04T02:06:37;102253.08;;;10.93;50.95
24013;BME280;12220;50.194;18.948;2023-06-04T02:08:39;102260.64;;;10.88;51.01
24013;BME280;12220;50.194;18.948;2023-06-04T02:10:43;102252.80;;;10.80;51.13
24013;BME280;12220;50.194;18.948;2023-06-04T02:12:54;102252.98;;;10.76;51.23
24013;BME280;12220;50.194;18.948;2023-06-04T02:14:55;102285.94;;;10.74;51.30
24013;BME280;12220;50.194;18.948;2023-06-04T02:16:57;102252.11;;;10.75;51.42
24013;BME280;12220;50.194;18.948;2023-06-04T02:19:01;102257.51;;;10.77;51.46
24013;BME280;12220;50.194;18.948;2023-06-04T02:21:04;102047.48;;;9.60;51.37
24013;BME280;12220;50.194;18.948;2023-06-04T02:23:06;102253.98;;;10.75;51.42
24013;BME280;12220;50.194;18.948;2023-06-04T02:25:07;102248.56;;;10.73;51.53
24013;BME280;12220;50.194;18.948;2023-06-04T02:27:11;102250.38;;;10.73;51.63
24013;BME280;12220;50.194;18.948;2023-06-04T02:29:17;102249.52;;;10.72;51.63
24013;BME280;12220;50.194;18.948;2023-06-04T02:31:18;102260.62;;;10.69;51.64
24013;BME280;12220;50.194;18.948;2023-06-04T02:33:19;102257.12;;;10.66;51.68
24013;BME280;12220;50.194;18.948;2023-06-04T02:35:21;102251.93;;;10.59;51.80
24013;BME280;12220;50.194;18.948;2023-06-04T02:37:32;102252.30;;;10.52;51.86
24013;BME280;12220;50.194;18.948;2023-06-04T02:39:38;102256.27;;;10.44;52.02
24013;BME280;12220;50.194;18.948;2023-06-04T02:41:40;102253.75;;;10.40;52.19
24013;BME280;12220;50.194;18.948;2023-06-04T02:43:41;102255.63;;;10.38;52.31
24013;BME280;12220;50.194;18.948;2023-06-04T02:45:47;102253.92;;;10.35;52.36
24013;BME280;12220;50.194;18.948;2023-06-04T02:47:48;102257.64;;;10.34;52.42
24013;BME280;12220;50.194;18.948;2023-06-04T02:49:50;102259.52;;;10.32;52.58
24013;BME280;12220;50.194;18.948;2023-06-04T02:51:51;102255.12;;;10.28;52.64
24013;BME280;12220;50.194;18.948;2023-06-04T02:54:02;102051.60;;;9.07;52.66
24013;BME280;12220;50.194;18.948;2023-06-04T02:56:04;102252.88;;;10.17;52.83
24013;BME280;12220;50.194;18.948;2023-06-04T02:58:06;102251.16;;;10.15;52.96
24013;BME280;12220;50.194;18.948;2023-06-04T03:00:11;102247.61;;;10.12;53.11
24013;BME280;12220;50.194;18.948;2023-06-04T03:02:17;102266.84;;;10.11;53.16
24013;BME280;12220;50.194;18.948;2023-06-04T03:04:18;102247.96;;;10.05;53.27
24013;BME280;12220;50.194;18.948;2023-06-04T03:06:22;102258.05;;;10.03;53.41
24013;BME280;12220;50.194;18.948;2023-06-04T03:08:23;102257.25;;;10.01;53.55
24013;BME280;12220;50.194;18.948;2023-06-04T03:10:33;102256.34;;;10.00;53.61
24013;BME280;12220;50.194;18.948;2023-06-04T03:12:34;102259.15;;;9.99;53.76
24013;BME280;12220;50.194;18.948;2023-06-04T03:14:35;102252.80;;;9.98;53.86
24013;BME280;12220;50.194;18.948;2023-06-04T03:16:37;102258.20;;;10.00;53.91
24013;BME280;12220;50.194;18.948;2023-06-04T03:18:47;102258.05;;;10.03;53.89
24013;BME280;12220;50.194;18.948;2023-06-04T03:20:48;102269.85;;;10.05;53.93
24013;BME280;12220;50.194;18.948;2023-06-04T03:22:51;102259.73;;;10.07;53.98
24013;BME280;12220;50.194;18.948;2023-06-04T03:24:55;102261.37;;;10.11;53.98
24013;BME280;12220;50.194;18.948;2023-06-04T03:27:03;102260.35;;;10.14;53.97
24013;BME280;12220;50.194;18.948;2023-06-04T03:29:04;102257.48;;;10.17;54.02
24013;BME280;12220;50.194;18.948;2023-06-04T03:31:07;102265.47;;;10.21;54.05
24013;BME280;12220;50.194;18.948;2023-06-04T03:33:08;102260.74;;;10.25;54.05
24013;BME280;12220;50.194;18.948;2023-06-04T03:35:16;102259.79;;;10.26;54.00
24013;BME280;12220;50.194;18.948;2023-06-04T03:37:18;102270.60;;;10.29;54.03
24013;BME280;12220;50.194;18.948;2023-06-04T03:39:19;102264.18;;;10.30;54.11
24013;BME280;12220;50.194;18.948;2023-06-04T03:41:21;102264.99;;;10.32;54.13
24013;BME280;12220;50.194;18.948;2023-06-04T03:43:32;102268.63;;;10.33;54.12
24013;BME280;12220;50.194;18.948;2023-06-04T03:45:33;102274.07;;;10.34;54.18
24013;BME280;12220;50.194;18.948;2023-06-04T03:47:35;102273.16;;;10.34;54.27
24013;BME280;12220;50.194;18.948;2023-06-04T03:49:37;102269.40;;;10.36;54.35
24013;BME280;12220;50.194;18.948;2023-06-04T03:51:46;102267.54;;;10.37;54.35
24013;BME280;12220;50.194;18.948;2023-06-04T03:53:49;102272.98;;;10.38;54.42
24013;BME280;12220;50.194;18.948;2023-06-04T03:55:53;102273.79;;;10.40;54.46
24013;BME280;12220;50.194;18.948;2023-06-04T03:57:54;102273.72;;;10.42;54.49
24013;BME280;12220;50.194;18.948;2023-06-04T04:00:02;102280.91;;;10.44;54.47
24013;BME280;12220;50.194;18.948;2023-06-04T04:02:04;102265.43;;;10.43;54.47
24013;BME280;12220;50.194;18.948;2023-06-04T04:04:06;102263.50;;;10.45;54.54
24013;BME280;12220;50.194;18.948;2023-06-04T04:06:09;102261.59;;;10.48;54.58
24013;BME280;12220;50.194;18.948;2023-06-04T04:08:16;102275.23;;;10.49;54.56
24013;BME280;12220;50.194;18.948;2023-06-04T04:10:21;102266.13;;;10.49;54.65
24013;BME280;12220;50.194;18.948;2023-06-04T04:12:23;102266.13;;;10.49;54.79
24013;BME280;12220;50.194;18.948;2023-06-04T04:14:24;102267.07;;;10.48;54.84
24013;BME280;12220;50.194;18.948;2023-06-04T04:16:31;102264.41;;;10.46;54.95
24013;BME280;12220;50.194;18.948;2023-06-04T04:18:33;102273.59;;;10.45;55.08
24013;BME280;12220;50.194;18.948;2023-06-04T04:20:36;102259.88;;;10.45;55.33
24013;BME280;12220;50.194;18.948;2023-06-04T04:22:40;102261.68;;;10.46;55.54
24013;BME280;12220;50.194;18.948;2023-06-04T04:24:46;102257.91;;;10.49;55.53
24013;BME280;12220;50.194;18.948;2023-06-04T04:26:48;102266.94;;;10.51;55.54
24013;BME280;12220;50.194;18.948;2023-06-04T04:28:53;102264.20;;;10.51;55.61
24013;BME280;12220;50.194;18.948;2023-06-04T04:31:00;102267.70;;;10.54;55.67
24013;BME280;12220;50.194;18.948;2023-06-04T04:33:03;102264.82;;;10.57;55.76
24013;BME280;12220;50.194;18.948;2023-06-04T04:35:07;102267.49;;;10.59;56.05
24013;BME280;12220;50.194;18.948;2023-06-04T04:37:09;102265.55;;;10.61;56.07
24013;BME280;12220;50.194;18.948;2023-06-04T04:39:10;102269.93;;;10.65;56.05
24013;BME280;12220;50.194;18.948;2023-06-04T04:41:16;102272.53;;;10.68;55.99
24013;BME280;12220;50.194;18.948;2023-06-04T04:45:30;102270.34;;;10.76;56.02
24013;BME280;12220;50.194;18.948;2023-06-04T04:47:32;102274.71;;;10.80;56.07
24013;BME280;12220;50.194;18.948;2023-06-04T04:49:35;102279.98;;;10.85;56.06
24013;BME280;12220;50.194;18.948;2023-06-04T04:51:36;102278.88;;;10.89;56.08
24013;BME280;12220;50.194;18.948;2023-06-04T04:53:37;102281.40;;;10.94;56.36
24013;BME280;12220;50.194;18.948;2023-06-04T04:55:39;102299.34;;;11.01;56.40
24013;BME280;12220;50.194;18.948;2023-06-04T04:57:50;102291.69;;;11.08;56.31
24013;BME280;12220;50.194;18.948;2023-06-04T04:59:51;102287.84;;;11.12;56.29
24013;BME280;12220;50.194;18.948;2023-06-04T05:01:53;102284.73;;;11.20;56.27
24013;BME280;12220;50.194;18.948;2023-06-04T05:03:54;102279.84;;;11.26;56.20
24013;BME280;12220;50.194;18.948;2023-06-04T05:06:05;102284.23;;;11.30;56.30
24013;BME280;12220;50.194;18.948;2023-06-04T05:08:06;102284.79;;;11.37;56.40
24013;BME280;12220;50.194;18.948;2023-06-04T05:10:08;102284.59;;;11.42;56.62
24013;BME280;12220;50.194;18.948;2023-06-04T05:12:10;102283.33;;;11.49;56.60
24013;BME280;12220;50.194;18.948;2023-06-04T05:14:20;102283.91;;;11.56;56.75
24013;BME280;12220;50.194;18.948;2023-06-04T05:16:21;102285.29;;;11.64;56.60
24013;BME280;12220;50.194;18.948;2023-06-04T05:18:23;102287.59;;;11.74;56.41
24013;BME280;12220;50.194;18.948;2023-06-04T05:20:32;102287.28;;;11.80;56.19
24013;BME280;12220;50.194;18.948;2023-06-04T05:22:39;102281.30;;;11.89;56.05
24013;BME280;12220;50.194;18.948;2023-06-04T05:24:40;102277.39;;;11.95;55.91
24013;BME280;12220;50.194;18.948;2023-06-04T05:26:42;102290.80;;;12.01;55.87
24013;BME280;12220;50.194;18.948;2023-06-04T05:28:44;102283.23;;;12.06;55.91
24013;BME280;12220;50.194;18.948;2023-06-04T05:30:49;102284.53;;;12.16;55.79
24013;BME280;12220;50.194;18.948;2023-06-04T05:32:57;102285.90;;;12.25;55.66
24013;BME280;12220;50.194;18.948;2023-06-04T05:35:01;102297.39;;;12.33;55.60
24013;BME280;12220;50.194;18.948;2023-06-04T05:37:09;102290.51;;;12.42;55.55
24013;BME280;12220;50.194;18.948;2023-06-04T05:39:10;102288.13;;;12.52;55.42
24013;BME280;12220;50.194;18.948;2023-06-04T05:41:13;102288.54;;;12.62;55.22
24013;BME280;12220;50.194;18.948;2023-06-04T05:43:14;102290.69;;;12.72;55.04
24013;BME280;12220;50.194;18.948;2023-06-04T05:45:16;102289.16;;;12.84;54.83
24013;BME280;12220;50.194;18.948;2023-06-04T05:47:21;102285.89;;;12.94;54.62
24013;BME280;12220;50.194;18.948;2023-06-04T05:49:23;102280.99;;;12.99;54.49
24013;BME280;12220;50.194;18.948;2023-06-04T05:51:26;102290.69;;;13.06;54.39
24013;BME280;12220;50.194;18.948;2023-06-04T05:53:29;102287.53;;;13.14;54.21
24013;BME280;12220;50.194;18.948;2023-06-04T05:55:36;102293.46;;;13.22;54.11
24013;BME280;12220;50.194;18.948;2023-06-04T05:57:37;102285.59;;;13.32;53.99
24013;BME280;12220;50.194;18.948;2023-06-04T05:59:38;102285.09;;;13.41;53.86
24013;BME280;12220;50.194;18.948;2023-06-04T06:01:40;102291.04;;;13.49;53.81
24013;BME280;12220;50.194;18.948;2023-06-04T06:03:52;102294.16;;;13.59;53.63
24013;BME280;12220;50.194;18.948;2023-06-04T06:05:56;102290.85;;;13.68;53.61
24013;BME280;12220;50.194;18.948;2023-06-04T06:08:01;102294.84;;;13.78;53.31
24013;BME280;12220;50.194;18.948;2023-06-04T06:10:03;102291.46;;;13.89;53.13
24013;BME280;12220;50.194;18.948;2023-06-04T06:12:06;102289.93;;;14.00;52.95
24013;BME280;12220;50.194;18.948;2023-06-04T06:14:11;102293.18;;;14.06;52.86
24013;BME280;12220;50.194;18.948;2023-06-04T06:16:12;102293.63;;;14.15;52.81
24013;BME280;12220;50.194;18.948;2023-06-04T06:18:13;102301.32;;;14.24;52.76
24013;BME280;12220;50.194;18.948;2023-06-04T06:20:21;102306.29;;;14.33;52.75
24013;BME280;12220;50.194;18.948;2023-06-04T06:22:23;102302.08;;;14.42;52.61
24013;BME280;12220;50.194;18.948;2023-06-04T06:24:24;102307.80;;;14.53;52.43
24013;BME280;12220;50.194;18.948;2023-06-04T06:26:26;102308.05;;;14.64;52.29
24013;BME280;12220;50.194;18.948;2023-06-04T06:28:36;102310.92;;;14.77;52.12
24013;BME280;12220;50.194;18.948;2023-06-04T06:30:37;102300.21;;;14.87;51.92
24013;BME280;12220;50.194;18.948;2023-06-04T06:32:39;102306.80;;;14.99;51.78
24013;BME280;12220;50.194;18.948;2023-06-04T06:34:40;102310.55;;;15.12;51.57
24013;BME280;12220;50.194;18.948;2023-06-04T06:36:51;102307.02;;;15.25;51.13
24013;BME280;12220;50.194;18.948;2023-06-04T06:38:52;102311.81;;;15.36;50.87
24013;BME280;12220;50.194;18.948;2023-06-04T06:40:54;102312.77;;;15.49;50.62
24013;BME280;12220;50.194;18.948;2023-06-04T06:42:55;102311.17;;;15.59;50.44
24013;BME280;12220;50.194;18.948;2023-06-04T06:45:06;102316.00;;;15.70;49.94
24013;BME280;12220;50.194;18.948;2023-06-04T06:47:08;102309.56;;;15.84;49.74
24013;BME280;12220;50.194;18.948;2023-06-04T06:49:09;102309.52;;;15.98;49.54
24013;BME280;12220;50.194;18.948;2023-06-04T06:51:11;102316.98;;;16.11;49.35
24013;BME280;12220;50.194;18.948;2023-06-04T06:53:21;102302.41;;;16.21;48.75
24013;BME280;12220;50.194;18.948;2023-06-04T06:55:23;102303.43;;;16.33;48.03
24013;BME280;12220;50.194;18.948;2023-06-04T06:57:24;102302.80;;;16.43;47.48
24013;BME280;12220;50.194;18.948;2023-06-04T06:59:25;102305.68;;;16.54;47.49
24013;BME280;12220;50.194;18.948;2023-06-04T07:01:36;102299.40;;;16.65;47.19
24013;BME280;12220;50.194;18.948;2023-06-04T07:03:37;102305.93;;;16.77;46.77
24013;BME280;12220;50.194;18.948;2023-06-04T07:05:40;102299.53;;;16.89;46.47
24013;BME280;12220;50.194;18.948;2023-06-04T07:07:41;102297.87;;;16.99;46.36
24013;BME280;12220;50.194;18.948;2023-06-04T07:09:53;102301.53;;;17.13;46.21
24013;BME280;12220;50.194;18.948;2023-06-04T07:11:55;102297.09;;;17.23;46.23
24013;BME280;12220;50.194;18.948;2023-06-04T07:13:56;102304.47;;;17.35;46.32
24013;BME280;12220;50.194;18.948;2023-06-04T07:15:58;102299.02;;;17.47;45.62
24013;BME280;12220;50.194;18.948;2023-06-04T07:18:05;102303.63;;;17.59;45.52
24013;BME280;12220;50.194;18.948;2023-06-04T07:20:08;102300.06;;;17.70;45.47
24013;BME280;12220;50.194;18.948;2023-06-04T07:22:10;102301.13;;;17.80;44.56
24013;BME280;12220;50.194;18.948;2023-06-04T07:24:11;102301.45;;;17.88;44.02
24013;BME280;12220;50.194;18.948;2023-06-04T07:26:20;102289.55;;;17.99;44.10
24013;BME280;12220;50.194;18.948;2023-06-04T07:28:22;102296.27;;;18.08;43.81
24013;BME280;12220;50.194;18.948;2023-06-04T07:30:27;102305.88;;;18.15;43.18
24013;BME280;12220;50.194;18.948;2023-06-04T07:32:28;102301.75;;;18.21;42.97
24013;BME280;12220;50.194;18.948;2023-06-04T07:34:35;102299.28;;;18.29;42.48
24013;BME280;12220;50.194;18.948;2023-06-04T07:36:38;102298.41;;;18.40;42.81
24013;BME280;12220;50.194;18.948;2023-06-04T07:38:40;102294.77;;;18.51;42.78
24013;BME280;12220;50.194;18.948;2023-06-04T07:40:45;102293.16;;;18.59;42.55
24013;BME280;12220;50.194;18.948;2023-06-04T07:42:50;102297.09;;;18.68;42.13
24013;BME280;12220;50.194;18.948;2023-06-04T07:44:51;102299.52;;;18.73;41.48
24013;BME280;12220;50.194;18.948;2023-06-04T07:46:53;102299.77;;;18.81;41.48
24013;BME280;12220;50.194;18.948;2023-06-04T07:48:54;102300.20;;;18.88;41.28
24013;BME280;12220;50.194;18.948;2023-06-04T07:51:05;102293.03;;;18.96;41.08
24013;BME280;12220;50.194;18.948;2023-06-04T07:53:06;102304.14;;;19.08;41.02
24013;BME280;12220;50.194;18.948;2023-06-04T07:55:08;102306.03;;;19.19;40.98
24013;BME280;12220;50.194;18.948;2023-06-04T07:57:09;102297.05;;;19.26;40.05
24013;BME280;12220;50.194;18.948;2023-06-04T07:59:22;102306.52;;;19.35;40.04
24013;BME280;12220;50.194;18.948;2023-06-04T08:01:23;102302.22;;;19.42;39.78
24013;BME280;12220;50.194;18.948;2023-06-04T08:03:25;102304.26;;;19.51;39.55
24013;BME280;12220;50.194;18.948;2023-06-04T08:05:27;102300.08;;;19.57;39.19
24013;BME280;12220;50.194;18.948;2023-06-04T08:07:34;102295.77;;;19.64;39.41
24013;BME280;12220;50.194;18.948;2023-06-04T08:09:36;102302.68;;;19.70;39.56
24013;BME280;12220;50.194;18.948;2023-06-04T08:11:38;102306.71;;;19.77;39.55
24013;BME280;12220;50.194;18.948;2023-06-04T08:13:40;102314.33;;;19.87;39.35
24013;BME280;12220;50.194;18.948;2023-06-04T08:15:49;102308.10;;;19.94;38.73
24013;BME280;12220;50.194;18.948;2023-06-04T08:17:51;102307.10;;;19.95;37.94
24013;BME280;12220;50.194;18.948;2023-06-04T08:19:53;102303.51;;;20.05;38.30
24013;BME280;12220;50.194;18.948;2023-06-04T08:21:55;102299.83;;;20.15;38.37
24013;BME280;12220;50.194;18.948;2023-06-04T08:24:04;102300.93;;;20.24;38.59
24013;BME280;12220;50.194;18.948;2023-06-04T08:26:06;102323.51;;;20.31;38.14
24013;BME280;12220;50.194;18.948;2023-06-04T08:28:07;102305.55;;;20.35;37.33
24013;BME280;12220;50.194;18.948;2023-06-04T08:30:09;102311.33;;;20.43;36.74
24013;BME280;12220;50.194;18.948;2023-06-04T08:32:19;102301.16;;;20.53;37.27
24013;BME280;12220;50.194;18.948;2023-06-04T08:34:20;102297.83;;;20.60;36.76
24013;BME280;12220;50.194;18.948;2023-06-04T08:36:22;102306.42;;;20.68;36.84
24013;BME280;12220;50.194;18.948;2023-06-04T08:38:29;102302.67;;;20.79;37.13
24013;BME280;12220;50.194;18.948;2023-06-04T08:40:34;102303.16;;;20.84;36.60
24013;BME280;12220;50.194;18.948;2023-06-04T08:42:42;102295.98;;;20.91;36.77
24013;BME280;12220;50.194;18.948;2023-06-04T08:44:46;102307.47;;;20.98;36.54
24013;BME280;12220;50.194;18.948;2023-06-04T08:47:01;102299.73;;;21.01;36.50
24013;BME280;12220;50.194;18.948;2023-06-04T08:49:03;102305.48;;;21.10;36.70
24013;BME280;12220;50.194;18.948;2023-06-04T08:51:12;102311.98;;;21.20;36.93
24013;BME280;12220;50.194;18.948;2023-06-04T08:53:15;102304.82;;;21.27;36.91
24013;BME280;12220;50.194;18.948;2023-06-04T08:55:17;102308.52;;;21.37;36.42
24013;BME280;12220;50.194;18.948;2023-06-04T08:57:19;102313.57;;;21.44;36.03
24013;BME280;12220;50.194;18.948;2023-06-04T08:59:27;102307.16;;;21.53;36.13
24013;BME280;12220;50.194;18.948;2023-06-04T09:01:32;102310.54;;;21.56;35.40
24013;BME280;12220;50.194;18.948;2023-06-04T09:03:36;102083.55;;;20.29;35.02
24013;BME280;12220;50.194;18.948;2023-06-04T09:05:39;102309.84;;;21.64;34.90
24013;BME280;12220;50.194;18.948;2023-06-04T09:07:52;102310.57;;;21.66;34.34
24013;BME280;12220;50.194;18.948;2023-06-04T09:10:04;102329.07;;;21.67;33.93
24013;BME280;12220;50.194;18.948;2023-06-04T09:12:10;102312.78;;;21.72;34.11
24013;BME280;12220;50.194;18.948;2023-06-04T09:14:14;102313.10;;;21.79;34.27
24013;BME280;12220;50.194;18.948;2023-06-04T09:16:17;102310.20;;;21.90;34.68
24013;BME280;12220;50.194;18.948;2023-06-04T09:18:18;102308.16;;;22.02;34.90
24013;BME280;12220;50.194;18.948;2023-06-04T09:20:23;102314.91;;;22.09;34.49
24013;BME280;12220;50.194;18.948;2023-06-04T09:22:35;102180.90;;;21.21;33.94
24013;BME280;12220;50.194;18.948;2023-06-04T09:24:44;102305.38;;;22.22;33.92
24013;BME280;12220;50.194;18.948;2023-06-04T09:26:55;102310.51;;;22.26;33.28
24013;BME280;12220;50.194;18.948;2023-06-04T09:28:58;102300.81;;;22.31;33.54
24013;BME280;12220;50.194;18.948;2023-06-04T09:31:00;102306.73;;;22.37;33.29
24013;BME280;12220;50.194;18.948;2023-06-04T09:33:07;102300.26;;;22.46;33.49
24013;BME280;12220;50.194;18.948;2023-06-04T09:35:14;102299.54;;;22.54;32.73
24013;BME280;12220;50.194;18.948;2023-06-04T09:37:19;102308.63;;;22.56;32.91
24013;BME280;12220;50.194;18.948;2023-06-04T09:39:29;102303.05;;;22.56;32.90
24013;BME280;12220;50.194;18.948;2023-06-04T09:41:31;102304.52;;;22.60;33.38
24013;BME280;12220;50.194;18.948;2023-06-04T09:43:33;102300.97;;;22.68;33.41
24013;BME280;12220;50.194;18.948;2023-06-04T09:45:34;102290.96;;;22.75;33.21
24013;BME280;12220;50.194;18.948;2023-06-04T09:47:44;102296.38;;;22.87;33.28
24013;BME280;12220;50.194;18.948;2023-06-04T09:49:47;102300.80;;;22.89;32.89
24013;BME280;12220;50.194;18.948;2023-06-04T09:51:53;102295.61;;;22.94;32.87
24013;BME280;12220;50.194;18.948;2023-06-04T09:54:00;102295.00;;;23.01;32.60
24013;BME280;12220;50.194;18.948;2023-06-04T09:56:06;102283.41;;;23.05;32.45
24013;BME280;12220;50.194;18.948;2023-06-04T09:58:10;102288.39;;;23.02;32.44
24013;BME280;12220;50.194;18.948;2023-06-04T10:00:22;102286.19;;;23.05;32.81
24013;BME280;12220;50.194;18.948;2023-06-04T10:02:25;102286.47;;;23.12;32.68
24013;BME280;12220;50.194;18.948;2023-06-04T10:04:30;102286.44;;;23.22;32.74
24013;BME280;12220;50.194;18.948;2023-06-04T10:06:41;102283.03;;;23.28;32.70
24013;BME280;12220;50.194;18.948;2023-06-04T10:08:45;102281.69;;;23.32;32.60
24013;BME280;12220;50.194;18.948;2023-06-04T10:10:54;102279.45;;;23.36;32.19
24013;BME280;12220;50.194;18.948;2023-06-04T10:13:00;102274.45;;;23.39;32.46
24013;BME280;12220;50.194;18.948;2023-06-04T10:15:10;102275.90;;;23.43;32.17
24013;BME280;12220;50.194;18.948;2023-06-04T10:17:20;102279.09;;;23.48;32.42
24013;BME280;12220;50.194;18.948;2023-06-04T10:19:22;102279.37;;;23.55;32.48
24013;BME280;12220;50.194;18.948;2023-06-04T10:21:26;102268.41;;;23.62;32.26
24013;BME280;12220;50.194;18.948;2023-06-04T10:23:30;102294.88;;;23.67;32.05
24013;BME280;12220;50.194;18.948;2023-06-04T10:25:32;102272.06;;;23.72;32.18
24013;BME280;12220;50.194;18.948;2023-06-04T10:27:34;102275.41;;;23.76;31.75
24013;BME280;12220;50.194;18.948;2023-06-04T10:29:40;102272.29;;;23.79;31.99
24013;BME280;12220;50.194;18.948;2023-06-04T10:31:42;102278.30;;;23.84;31.77
24013;BME280;12220;50.194;18.948;2023-06-04T10:33:47;102274.91;;;23.90;31.98
24013;BME280;12220;50.194;18.948;2023-06-04T10:35:50;102278.50;;;24.00;31.57
24013;BME280;12220;50.194;18.948;2023-06-04T10:37:52;102277.70;;;24.08;31.08
24013;BME280;12220;50.194;18.948;2023-06-04T10:39:58;102276.02;;;24.15;31.54
24013;BME280;12220;50.194;18.948;2023-06-04T10:42:07;102274.34;;;24.23;31.34
24013;BME280;12220;50.194;18.948;2023-06-04T10:44:10;102278.91;;;24.24;30.87
24013;BME280;12220;50.194;18.948;2023-06-04T10:46:14;102281.87;;;24.22;30.92
24013;BME280;12220;50.194;18.948;2023-06-04T10:48:16;102280.51;;;24.26;31.14